Time;durP1;ratioP1;P1;durP2;ratioP2;P2;SDS_P1;SDS_P2;PMS_P1;PMS_P2;Temp;Humidity;BMP_temperature;BMP_pressure;BME280_temperature;BME280_humidity;BME280_pressure;Samples;Min_cycle;Max_cycle;Signal;HPM_P1;HPM_P2
2022/01/12 00:01:00;;;;;;;1.75;1.65;;;2.90;99.90;;;;;;5076721;28;20085;-80
2022/01/12 00:03:25;;;;;;;2.53;2.33;;;2.90;99.90;;;;;;5072396;28;20045;-81
2022/01/12 00:05:52;;;;;;;1.48;1.38;;;2.90;99.90;;;;;;5071732;28;20051;-81
2022/01/12 00:08:17;;;;;;;1.58;1.38;;;2.90;99.90;;;;;;5078133;28;20076;-81
2022/01/12 00:10:44;;;;;;;1.73;1.63;;;2.90;99.90;;;;;;5077119;28;20417;-82
2022/01/12 00:13:09;;;;;;;12.05;2.08;;;2.90;99.90;;;;;;5074317;28;20127;-81
2022/01/12 00:15:35;;;;;;;2.92;2.65;;;2.90;99.90;;;;;;5070925;28;20151;-81
2022/01/12 00:18:01;;;;;;;1.08;1.08;;;3.00;99.90;;;;;;5074534;28;20042;-81
2022/01/12 00:20:27;;;;;;;1.95;1.65;;;2.90;99.90;;;;;;5076170;28;20045;-81
2022/01/12 00:22:53;;;;;;;6.63;2.08;;;2.90;99.90;;;;;;5072333;28;20128;-82
2022/01/12 00:33:16;;;;;;;9.60;1.75;;;3.00;99.90;;;;;;5074135;28;20045;-81
2022/01/12 00:35:44;;;;;;;2.30;1.83;;;2.90;99.90;;;;;;5078554;28;20187;-81
2022/01/12 00:38:11;;;;;;;0.93;0.90;;;3.00;99.90;;;;;;5080132;28;20044;-81
2022/01/12 00:40:41;;;;;;;2.15;1.20;;;3.00;99.90;;;;;;5076442;28;20108;-81
2022/01/12 00:43:07;;;;;;;4.32;2.13;;;3.00;99.90;;;;;;5078768;28;20063;-81
2022/01/12 00:45:34;;;;;;;1.30;1.20;;;3.00;99.90;;;;;;5077780;28;20037;-81
2022/01/12 00:48:00;;;;;;;1.05;1.05;;;3.00;99.90;;;;;;5076847;28;20052;-82
2022/01/12 00:50:26;;;;;;;2.45;2.17;;;3.00;99.90;;;;;;5075256;28;20041;-81
2022/01/12 00:52:53;;;;;;;2.35;1.65;;;3.00;99.90;;;;;;5081718;28;20044;-82
2022/01/12 00:55:19;;;;;;;1.40;1.30;;;3.00;99.90;;;;;;5078764;28;20131;-81
2022/01/12 00:57:45;;;;;;;3.05;1.65;;;3.00;99.90;;;;;;5063193;28;20545;-81
2022/01/12 01:00:11;;;;;;;1.13;1.08;;;3.10;99.90;;;;;;5078580;28;20052;-81
2022/01/12 01:02:37;;;;;;;2.35;1.75;;;3.00;99.90;;;;;;5075559;28;20047;-81
2022/01/12 01:05:03;;;;;;;1.20;1.10;;;3.00;99.90;;;;;;5069117;28;20041;-81
2022/01/12 01:07:29;;;;;;;1.75;1.65;;;3.00;99.90;;;;;;5073093;28;20140;-81
2022/01/12 01:10:03;;;;;;;1.23;1.13;;;3.00;99.90;;;;;;5077378;28;20099;-81
2022/01/12 01:12:30;;;;;;;11.32;2.08;;;3.00;99.90;;;;;;5076189;28;20082;-82
2022/01/12 01:25:39;;;;;;;1.00;1.00;;;3.00;99.90;;;;;;5076592;28;20064;-81
2022/01/12 01:28:06;;;;;;;1.48;1.38;;;3.00;99.90;;;;;;5055663;28;20045;-82
2022/01/12 01:30:35;;;;;;;1.58;1.38;;;3.00;99.90;;;;;;5067194;28;20041;-81
2022/01/12 01:33:05;;;;;;;3.08;1.85;;;3.10;99.90;;;;;;5079295;28;20076;-81
2022/01/12 01:35:32;;;;;;;2.85;1.75;;;3.10;99.90;;;;;;5061663;28;20128;-81
2022/01/12 01:38:02;;;;;;;1.60;1.50;;;3.00;99.90;;;;;;5072819;28;20045;-81
2022/01/12 01:40:33;;;;;;;1.00;1.00;;;3.00;99.90;;;;;;5074814;28;20162;-81
2022/01/12 01:53:41;;;;;;;1.60;1.38;;;3.10;99.90;;;;;;5080074;28;20125;-80
2022/01/12 01:56:08;;;;;;;1.35;1.25;;;3.10;99.90;;;;;;5075161;28;20044;-81
2022/01/12 01:58:34;;;;;;;0.90;0.90;;;3.10;99.90;;;;;;5072687;28;20036;-81
2022/01/12 02:00:59;;;;;;;2.50;1.27;;;3.10;99.90;;;;;;5072872;28;20052;-81
2022/01/12 02:03:27;;;;;;;2.10;1.42;;;3.20;99.90;;;;;;5067879;28;20037;-81
2022/01/12 02:05:53;;;;;;;2.15;1.95;;;3.10;99.90;;;;;;5073535;28;20128;-81
2022/01/12 02:08:19;;;;;;;2.28;1.92;;;3.20;99.90;;;;;;5074816;28;20089;-81
2022/01/12 02:10:45;;;;;;;1.08;1.08;;;3.10;99.90;;;;;;5070623;28;20040;-81
2022/01/12 02:13:10;;;;;;;1.92;1.75;;;3.10;99.90;;;;;;5076754;28;20080;-81
2022/01/12 02:15:37;;;;;;;0.85;0.85;;;3.20;99.90;;;;;;5076494;28;20090;-81
2022/01/12 02:37:16;;;;;;;0.90;0.90;;;3.20;99.90;;;;;;5069201;28;20163;-81
2022/01/12 02:39:57;;;;;;;2.10;1.98;;;3.20;99.90;;;;;;5074695;28;20680;-81
2022/01/12 02:42:25;;;;;;;2.15;1.48;;;3.20;99.90;;;;;;5074573;28;20074;-81
2022/01/12 02:55:48;;;;;;;0.80;0.80;;;3.20;99.90;;;;;;5069290;28;20071;-81
2022/01/12 02:58:13;;;;;;;1.30;1.20;;;3.20;99.90;;;;;;5075408;28;20060;-81
2022/01/12 03:01:02;;;;;;;1.23;1.02;;;3.20;99.90;;;;;;5080373;28;20092;-82
2022/01/12 03:03:31;;;;;;;2.83;1.80;;;3.20;99.90;;;;;;5078134;28;20052;-81
2022/01/12 03:06:00;;;;;;;0.90;0.90;;;3.20;99.90;;;;;;5075470;28;20066;-81
2022/01/12 03:08:27;;;;;;;1.67;1.55;;;3.20;99.90;;;;;;5074556;28;20481;-81
2022/01/12 03:10:53;;;;;;;1.30;1.20;;;3.20;99.90;;;;;;5061276;28;20041;-82
2022/01/12 03:13:20;;;;;;;2.40;1.65;;;3.20;99.90;;;;;;5075255;28;20044;-81
2022/01/12 03:15:48;;;;;;;1.27;1.17;;;3.20;99.90;;;;;;5071492;28;20529;-81
2022/01/12 03:18:14;;;;;;;3.00;2.25;;;3.20;99.90;;;;;;5075792;28;20471;-81
2022/01/12 03:20:40;;;;;;;0.70;0.70;;;3.20;99.90;;;;;;5072222;28;20075;-81
2022/01/12 03:23:05;;;;;;;0.95;0.95;;;3.10;99.90;;;;;;5072141;28;20041;-81
2022/01/12 03:25:31;;;;;;;1.00;1.00;;;3.10;99.90;;;;;;5077052;28;20070;-81
2022/01/12 03:28:00;;;;;;;1.77;1.27;;;3.10;99.90;;;;;;5075818;28;20509;-81
2022/01/12 03:30:33;;;;;;;0.90;0.90;;;3.10;99.90;;;;;;5081621;28;20045;-81
2022/01/12 03:33:14;;;;;;;1.85;1.25;;;3.00;99.90;;;;;;5080364;28;20045;-81
2022/01/12 03:35:51;;;;;;;1.10;1.10;;;3.00;99.90;;;;;;5075619;28;20075;-81
2022/01/12 03:38:20;;;;;;;0.95;0.95;;;2.90;99.90;;;;;;5080729;28;20084;-81
2022/01/12 03:40:47;;;;;;;2.08;1.88;;;2.90;99.90;;;;;;5077207;28;20083;-81
2022/01/12 03:43:13;;;;;;;3.17;1.75;;;2.90;99.90;;;;;;5081240;28;20124;-81
2022/01/12 03:45:39;;;;;;;1.42;1.33;;;2.90;99.90;;;;;;5080070;28;20118;-82
2022/01/12 03:48:04;;;;;;;1.35;1.25;;;2.80;99.90;;;;;;5084234;28;20048;-81
2022/01/12 03:50:30;;;;;;;0.70;0.70;;;2.80;99.90;;;;;;5074779;28;20037;-81
2022/01/12 03:52:56;;;;;;;0.90;0.90;;;2.80;99.90;;;;;;5059401;28;20037;-81
2022/01/12 03:55:21;;;;;;;0.93;0.93;;;2.70;99.90;;;;;;5062660;28;20045;-81
2022/01/12 03:57:47;;;;;;;1.38;1.27;;;2.70;99.90;;;;;;5068984;28;20045;-81
2022/01/12 04:00:13;;;;;;;1.00;1.00;;;2.70;99.90;;;;;;5080991;28;20044;-81
2022/01/12 04:02:39;;;;;;;1.40;1.30;;;2.70;99.90;;;;;;5082055;28;20049;-82
2022/01/12 04:10:21;;;;;;;;;;;2.60;99.90;;;;;;5082639;28;20044;-81
2022/01/12 04:12:47;;;;;;;0.80;0.80;;;2.60;99.90;;;;;;5073192;28;19920;-80
2022/01/12 04:15:13;;;;;;;0.80;0.80;;;2.60;99.90;;;;;;5072932;28;20045;-80
2022/01/12 04:17:38;;;;;;;0.75;0.75;;;2.60;99.90;;;;;;5082077;28;20036;-81
2022/01/12 04:20:04;;;;;;;0.90;0.90;;;2.60;99.90;;;;;;5072498;28;20489;-82
2022/01/12 04:31:13;;;;;;;0.85;0.85;;;2.40;99.90;;;;;;5068025;28;20074;-81
2022/01/12 04:33:40;;;;;;;0.70;0.70;;;2.40;99.90;;;;;;5077479;28;20104;-81
2022/01/12 04:36:07;;;;;;;0.90;0.90;;;2.30;99.90;;;;;;5075598;28;20044;-81
2022/01/12 04:38:34;;;;;;;1.88;1.48;;;2.30;99.90;;;;;;5076452;28;20174;-81
2022/01/12 04:41:03;;;;;;;0.82;0.82;;;2.20;99.90;;;;;;5070233;28;20049;-81
2022/01/12 04:43:28;;;;;;;0.90;0.90;;;2.20;99.90;;;;;;5081115;28;20048;-81
2022/01/12 04:50:50;;;;;;;1.33;1.23;;;2.00;99.90;;;;;;5081213;28;20048;-81
2022/01/12 04:53:18;;;;;;;0.80;0.80;;;1.90;99.90;;;;;;5073249;28;20115;-81
2022/01/12 04:55:44;;;;;;;1.40;1.30;;;1.80;99.90;;;;;;5074377;28;20049;-81
2022/01/12 04:58:10;;;;;;;0.80;0.80;;;1.70;99.90;;;;;;5077863;28;20120;-81
2022/01/12 05:00:38;;;;;;;0.80;0.80;;;1.70;99.90;;;;;;5075701;28;20143;-81
2022/01/12 05:13:48;;;;;;;0.70;0.70;;;1.50;99.90;;;;;;5073357;28;20052;-81
2022/01/12 05:16:13;;;;;;;1.10;1.02;;;1.40;99.90;;;;;;5078094;28;20037;-81
2022/01/12 05:18:41;;;;;;;1.00;1.00;;;1.50;99.90;;;;;;5078856;28;20040;-81
2022/01/12 05:21:08;;;;;;;1.00;1.00;;;1.40;99.90;;;;;;5079223;28;20041;-81
2022/01/12 05:23:34;;;;;;;1.35;1.25;;;1.30;99.90;;;;;;5075896;28;20098;-81
2022/01/12 05:26:01;;;;;;;1.60;1.38;;;1.30;99.90;;;;;;5065456;28;20053;-81
2022/01/12 05:28:28;;;;;;;1.13;1.10;;;1.30;99.90;;;;;;5073757;28;20043;-81
2022/01/12 05:30:54;;;;;;;0.98;0.98;;;1.20;99.90;;;;;;5075641;28;20068;-81
2022/01/12 05:33:22;;;;;;;0.80;0.80;;;1.10;99.90;;;;;;5055186;28;20514;-81
2022/01/12 05:35:48;;;;;;;0.77;0.77;;;1.10;99.90;;;;;;5076976;28;20059;-81
2022/01/12 05:38:15;;;;;;;1.00;1.00;;;1.10;99.90;;;;;;5059070;28;20044;-80
2022/01/12 05:40:45;;;;;;;1.48;1.38;;;1.00;99.90;;;;;;5054585;28;20068;-81
2022/01/12 05:43:11;;;;;;;1.30;1.20;;;1.10;99.90;;;;;;5078542;28;20127;-81
2022/01/12 05:45:39;;;;;;;1.23;1.13;;;1.00;99.90;;;;;;5072164;28;20048;-80
2022/01/12 05:50:34;;;;;;;1.35;1.13;;;1.00;99.90;;;;;;5070731;28;20037;-81
2022/01/12 05:52:59;;;;;;;1.05;1.02;;;1.00;99.90;;;;;;5077084;28;20056;-80
2022/01/12 05:55:25;;;;;;;0.80;0.80;;;0.90;99.90;;;;;;5078054;28;20082;-81
2022/01/12 05:57:51;;;;;;;1.00;1.00;;;0.90;99.90;;;;;;5075924;28;20208;-80
2022/01/12 06:00:18;;;;;;;1.05;1.00;;;0.90;99.90;;;;;;5078534;28;20097;-81
2022/01/12 06:02:44;;;;;;;1.08;1.08;;;0.90;99.90;;;;;;5075483;28;20327;-81
2022/01/12 06:05:09;;;;;;;1.15;1.05;;;0.90;99.90;;;;;;5075966;28;20108;-82
2022/01/12 06:07:35;;;;;;;0.90;0.90;;;0.80;99.90;;;;;;5087300;28;20112;-81
2022/01/12 06:10:02;;;;;;;0.90;0.90;;;0.80;99.90;;;;;;5075035;28;20045;-81
2022/01/12 06:12:27;;;;;;;0.95;0.95;;;0.80;99.90;;;;;;5077412;28;20493;-81
2022/01/12 06:14:53;;;;;;;1.20;1.10;;;0.80;99.90;;;;;;5079413;28;20044;-81
2022/01/12 06:17:18;;;;;;;1.48;1.38;;;0.80;99.90;;;;;;5074835;28;20058;-81
2022/01/12 06:19:44;;;;;;;0.70;0.70;;;0.80;99.90;;;;;;5075638;28;20070;-81
2022/01/12 06:22:10;;;;;;;0.75;0.75;;;0.80;99.90;;;;;;5071265;28;20053;-81
2022/01/12 06:24:36;;;;;;;1.00;1.00;;;0.80;99.90;;;;;;5076579;28;20047;-81
2022/01/12 06:27:03;;;;;;;1.20;1.10;;;0.90;99.90;;;;;;5078147;28;20053;-81
2022/01/12 06:29:42;;;;;;;0.93;0.93;;;0.80;99.90;;;;;;5068324;28;20539;-81
2022/01/12 06:32:08;;;;;;;0.90;0.90;;;0.80;99.90;;;;;;5075138;28;20071;-81
2022/01/12 06:34:34;;;;;;;0.90;0.90;;;0.80;99.90;;;;;;5075199;28;20101;-82
2022/01/12 06:37:00;;;;;;;1.08;1.05;;;0.80;99.90;;;;;;5081125;28;20467;-81
2022/01/12 06:39:26;;;;;;;0.95;0.95;;;0.80;99.90;;;;;;5072646;28;20044;-81
2022/01/12 06:41:54;;;;;;;1.15;1.05;;;0.90;99.90;;;;;;5071276;28;20045;-81
2022/01/12 06:44:21;;;;;;;0.80;0.80;;;0.80;99.90;;;;;;5072972;28;20056;-81
2022/01/12 06:46:49;;;;;;;1.02;1.02;;;0.80;99.90;;;;;;5077356;28;20094;-82
2022/01/12 06:49:16;;;;;;;0.90;0.90;;;0.80;99.90;;;;;;5076588;28;20183;-82
2022/01/12 06:51:42;;;;;;;0.80;0.80;;;0.80;99.90;;;;;;5072973;28;20036;-81
2022/01/12 06:54:08;;;;;;;1.27;1.17;;;0.80;99.90;;;;;;5077572;28;20077;-81
2022/01/12 06:56:34;;;;;;;0.93;0.90;;;0.70;99.90;;;;;;5080878;28;20660;-81
2022/01/12 06:59:00;;;;;;;0.80;0.80;;;0.90;99.90;;;;;;5064102;28;20104;-81
2022/01/12 07:01:26;;;;;;;2.80;1.42;;;0.70;99.90;;;;;;5070217;28;20041;-81
2022/01/12 07:03:52;;;;;;;0.90;0.90;;;0.70;99.90;;;;;;5074174;28;20039;-81
2022/01/12 07:06:18;;;;;;;1.27;1.17;;;0.70;99.90;;;;;;5071028;28;20094;-81
2022/01/12 07:08:44;;;;;;;0.77;0.77;;;0.70;99.90;;;;;;5064632;28;20069;-81
2022/01/12 07:11:10;;;;;;;1.08;1.08;;;0.70;99.90;;;;;;5068261;28;20064;-81
2022/01/12 07:13:36;;;;;;;1.10;1.10;;;0.70;99.90;;;;;;5067844;28;20105;-81
2022/01/12 07:16:02;;;;;;;1.00;1.00;;;0.70;99.90;;;;;;5066236;28;20045;-81
2022/01/12 07:18:29;;;;;;;0.82;0.82;;;0.70;99.90;;;;;;5062489;28;20051;-81
2022/01/12 07:20:58;;;;;;;0.80;0.80;;;0.70;99.90;;;;;;5066110;28;20057;-81
2022/01/12 07:23:25;;;;;;;0.80;0.80;;;0.70;99.90;;;;;;5069955;28;20041;-81
2022/01/12 07:25:51;;;;;;;1.33;1.23;;;0.70;99.90;;;;;;5065221;28;20060;-80
2022/01/12 07:28:17;;;;;;;0.80;0.80;;;0.70;99.90;;;;;;5075371;28;20059;-81
2022/01/12 07:30:43;;;;;;;0.82;0.82;;;0.70;99.90;;;;;;5070571;28;20104;-81
2022/01/12 07:33:09;;;;;;;1.00;1.00;;;0.70;99.90;;;;;;5073791;28;20045;-81
2022/01/12 07:35:34;;;;;;;0.90;0.90;;;0.70;99.90;;;;;;5064782;28;20096;-81
2022/01/12 07:38:00;;;;;;;0.90;0.90;;;0.80;99.90;;;;;;5064694;28;20092;-81
2022/01/12 07:40:26;;;;;;;0.90;0.90;;;0.70;99.90;;;;;;5065045;28;20045;-81
2022/01/12 07:42:51;;;;;;;0.82;0.82;;;0.70;99.90;;;;;;5067195;28;20044;-81
2022/01/12 07:45:19;;;;;;;0.90;0.90;;;0.70;99.90;;;;;;5075241;28;20051;-81
2022/01/12 07:47:44;;;;;;;0.80;0.80;;;0.70;99.90;;;;;;5062008;28;20064;-81
2022/01/12 07:50:10;;;;;;;0.80;0.80;;;0.70;99.90;;;;;;5064397;28;20044;-81
2022/01/12 07:52:37;;;;;;;0.90;0.90;;;0.70;99.90;;;;;;5070991;28;20036;-81
2022/01/12 07:55:04;;;;;;;0.90;0.90;;;0.60;99.90;;;;;;5072974;28;20037;-81
2022/01/12 07:57:29;;;;;;;0.95;0.95;;;0.60;99.90;;;;;;5078905;28;20178;-81
2022/01/12 07:59:55;;;;;;;1.23;1.13;;;0.70;99.90;;;;;;5066504;28;20037;-81
2022/01/12 08:02:21;;;;;;;0.90;0.90;;;0.70;99.90;;;;;;5071439;28;20052;-81
2022/01/12 08:04:46;;;;;;;0.88;0.88;;;0.70;99.90;;;;;;5066513;28;20045;-81
2022/01/12 08:07:12;;;;;;;0.70;0.70;;;0.70;99.90;;;;;;5066344;28;20045;-80
2022/01/12 08:09:38;;;;;;;0.93;0.93;;;0.70;99.90;;;;;;5068349;28;20052;-81
2022/01/12 08:12:05;;;;;;;1.20;1.10;;;0.70;99.90;;;;;;5062833;28;20048;-80
2022/01/12 08:14:30;;;;;;;0.80;0.80;;;0.70;99.90;;;;;;5067871;28;20129;-81
2022/01/12 08:16:56;;;;;;;1.50;1.40;;;0.80;99.90;;;;;;5080181;28;20164;-81
2022/01/12 08:19:23;;;;;;;0.80;0.80;;;0.80;99.90;;;;;;5078059;28;20052;-81
2022/01/12 08:21:49;;;;;;;0.80;0.80;;;0.80;99.90;;;;;;5078225;28;20129;-81
2022/01/12 08:24:16;;;;;;;0.90;0.90;;;0.90;99.90;;;;;;5076576;28;20056;-80
2022/01/12 08:26:42;;;;;;;0.95;0.95;;;0.90;99.90;;;;;;5077571;28;20068;-80
2022/01/12 08:29:10;;;;;;;0.80;0.80;;;1.00;99.90;;;;;;5081275;28;20060;-81
2022/01/12 08:31:36;;;;;;;0.80;0.80;;;1.00;99.90;;;;;;5073528;28;20099;-81
2022/01/12 08:34:02;;;;;;;0.70;0.70;;;1.00;99.90;;;;;;5075240;28;20032;-81
2022/01/12 08:36:27;;;;;;;0.80;0.80;;;1.00;99.90;;;;;;5074119;28;20127;-81
2022/01/12 08:38:53;;;;;;;0.80;0.80;;;1.00;99.90;;;;;;5072398;28;20395;-81
2022/01/12 08:41:19;;;;;;;1.00;1.00;;;1.10;99.90;;;;;;5056815;28;20060;-81
2022/01/12 08:43:44;;;;;;;2.20;1.80;;;1.10;99.90;;;;;;5071405;28;20481;-81
2022/01/12 08:46:10;;;;;;;0.90;0.90;;;1.20;99.90;;;;;;5068238;28;20096;-81
2022/01/12 08:48:36;;;;;;;0.90;0.90;;;1.20;99.90;;;;;;5061253;28;20045;-81
2022/01/12 08:51:02;;;;;;;0.80;0.80;;;1.20;99.90;;;;;;5065850;28;20063;-81
2022/01/12 08:53:28;;;;;;;0.80;0.80;;;1.20;99.90;;;;;;5081423;28;20517;-81
2022/01/12 08:55:54;;;;;;;0.88;0.88;;;1.20;99.90;;;;;;5079578;28;20044;-81
2022/01/12 08:58:19;;;;;;;0.90;0.90;;;1.30;99.90;;;;;;5075463;28;20048;-81
2022/01/12 09:00:45;;;;;;;1.00;1.00;;;1.20;99.90;;;;;;5073871;28;20067;-81
2022/01/12 09:03:12;;;;;;;0.70;0.70;;;1.30;99.90;;;;;;5072861;28;20453;-81
2022/01/12 09:05:37;;;;;;;0.80;0.80;;;1.40;99.90;;;;;;5073668;28;20045;-81
2022/01/12 09:08:04;;;;;;;0.80;0.80;;;1.40;99.90;;;;;;5082439;28;20174;-81
2022/01/12 09:10:30;;;;;;;1.35;1.02;;;1.40;99.90;;;;;;5081279;28;20048;-80
2022/01/12 09:12:55;;;;;;;0.80;0.80;;;1.50;99.90;;;;;;5064246;28;20444;-81
2022/01/12 09:15:25;;;;;;;0.80;0.80;;;1.50;99.90;;;;;;5072443;28;20128;-81
2022/01/12 09:17:51;;;;;;;1.08;0.98;;;1.50;99.90;;;;;;5079475;28;20041;-81
2022/01/12 09:20:18;;;;;;;0.98;0.98;;;1.60;99.90;;;;;;5079885;28;20040;-81
2022/01/12 09:22:43;;;;;;;0.98;0.98;;;1.60;99.90;;;;;;5070257;28;20059;-81
2022/01/12 09:25:10;;;;;;;0.90;0.90;;;1.60;99.90;;;;;;5075110;28;20080;-81
2022/01/12 09:27:37;;;;;;;0.80;0.80;;;1.70;99.90;;;;;;5080766;28;20040;-81
2022/01/12 09:30:04;;;;;;;0.80;0.80;;;1.70;99.90;;;;;;5078382;28;20045;-82
2022/01/12 09:32:30;;;;;;;0.80;0.80;;;1.80;99.90;;;;;;5074186;28;20048;-81
2022/01/12 09:34:56;;;;;;;0.80;0.80;;;1.80;99.90;;;;;;5080105;28;20049;-81
2022/01/12 09:37:21;;;;;;;0.70;0.70;;;1.90;99.90;;;;;;5076080;28;20028;-81
2022/01/12 09:39:47;;;;;;;1.05;0.98;;;2.00;99.90;;;;;;5074239;28;20215;-81
2022/01/12 09:42:13;;;;;;;0.80;0.80;;;2.00;99.90;;;;;;5079058;28;20041;-82
2022/01/12 09:44:44;;;;;;;0.80;0.80;;;2.00;99.90;;;;;;5079923;28;20058;-81
2022/01/12 09:47:10;;;;;;;0.90;0.90;;;2.10;99.90;;;;;;5076381;28;20041;-82
2022/01/12 09:49:35;;;;;;;0.80;0.80;;;2.20;99.90;;;;;;5073033;28;20043;-81
2022/01/12 09:52:02;;;;;;;0.70;0.70;;;2.20;99.90;;;;;;5067120;28;20037;-81
2022/01/12 09:54:28;;;;;;;0.70;0.70;;;2.30;99.90;;;;;;5066655;28;20045;-81
2022/01/12 09:56:54;;;;;;;0.70;0.70;;;2.30;99.90;;;;;;5067795;28;20040;-80
2022/01/12 09:59:21;;;;;;;0.80;0.80;;;2.40;99.90;;;;;;5067408;28;20029;-81
2022/01/12 10:01:48;;;;;;;0.70;0.70;;;2.40;99.90;;;;;;5068095;28;20052;-81
2022/01/12 10:04:16;;;;;;;0.80;0.80;;;2.40;99.90;;;;;;5062254;28;20041;-81
2022/01/12 10:06:53;;;;;;;0.80;0.80;;;2.50;99.90;;;;;;5066428;28;20044;-81
2022/01/12 10:09:38;;;;;;;0.75;0.75;;;2.50;99.90;;;;;;5074792;28;20040;-82
2022/01/12 10:12:09;;;;;;;0.85;0.85;;;2.60;99.90;;;;;;5080919;28;20037;-81
2022/01/12 10:14:43;;;;;;;0.70;0.70;;;2.60;99.90;;;;;;5076754;28;20037;-81
2022/01/12 10:17:09;;;;;;;0.80;0.80;;;2.70;99.90;;;;;;5074529;28;20230;-81
2022/01/12 10:19:35;;;;;;;1.00;1.00;;;2.70;99.90;;;;;;5062531;28;20047;-81
2022/01/12 10:22:05;;;;;;;0.80;0.80;;;2.80;99.90;;;;;;5069400;28;20343;-80
2022/01/12 10:24:31;;;;;;;1.02;0.95;;;2.90;99.90;;;;;;5072883;28;20037;-81
2022/01/12 10:26:57;;;;;;;0.73;0.73;;;3.00;99.90;;;;;;5075440;28;20043;-81
2022/01/12 10:29:28;;;;;;;0.90;0.85;;;3.00;99.90;;;;;;5074620;28;20112;-81
2022/01/12 10:31:58;;;;;;;1.20;1.15;;;3.10;99.90;;;;;;5074392;28;20426;-81
2022/01/12 10:34:26;;;;;;;0.70;0.70;;;3.10;99.90;;;;;;5071098;28;20080;-82
2022/01/12 10:36:54;;;;;;;0.88;0.88;;;3.20;99.90;;;;;;5072095;28;20045;-81
2022/01/12 10:39:22;;;;;;;1.30;1.20;;;3.20;99.90;;;;;;5064942;28;20049;-81
2022/01/12 10:42:06;;;;;;;0.80;0.80;;;3.20;99.90;;;;;;5075707;28;20041;-81
2022/01/12 10:44:34;;;;;;;0.70;0.70;;;3.30;99.90;;;;;;5069675;28;20071;-81
2022/01/12 10:47:16;;;;;;;0.70;0.70;;;3.30;99.90;;;;;;5065297;28;20093;-81
2022/01/12 10:49:58;;;;;;;0.90;0.90;;;3.30;99.90;;;;;;5060849;28;20041;-81
2022/01/12 10:52:30;;;;;;;0.80;0.80;;;3.40;99.90;;;;;;5066104;28;20052;-82
2022/01/12 10:55:02;;;;;;;0.70;0.70;;;3.50;99.90;;;;;;5077691;28;20123;-81
2022/01/12 10:57:35;;;;;;;0.90;0.90;;;3.50;99.90;;;;;;5069572;28;20043;-81
2022/01/12 11:00:18;;;;;;;0.70;0.70;;;3.50;99.90;;;;;;5071884;28;20057;-81
2022/01/12 11:02:51;;;;;;;0.70;0.70;;;3.60;99.90;;;;;;5072301;28;20133;-81
2022/01/12 11:05:19;;;;;;;0.70;0.70;;;3.60;99.90;;;;;;5069718;28;20097;-81
2022/01/12 11:07:45;;;;;;;0.93;0.93;;;3.60;99.90;;;;;;5069059;28;20052;-82
2022/01/12 11:10:11;;;;;;;1.10;1.10;;;3.70;99.90;;;;;;5068437;28;20037;-81
2022/01/12 11:12:38;;;;;;;0.70;0.70;;;3.70;99.90;;;;;;5061832;28;20036;-81
2022/01/12 11:15:17;;;;;;;0.70;0.70;;;3.80;99.90;;;;;;5066633;28;20052;-81
2022/01/12 11:17:45;;;;;;;1.00;1.00;;;3.80;99.90;;;;;;5064770;28;20041;-81
2022/01/12 11:20:22;;;;;;;0.70;0.70;;;3.90;99.90;;;;;;5067860;28;20053;-81
2022/01/12 11:23:07;;;;;;;1.00;1.00;;;3.90;99.90;;;;;;5075988;28;20057;-81
2022/01/12 11:25:37;;;;;;;0.80;0.80;;;4.00;99.90;;;;;;5064414;28;20139;-81
2022/01/12 11:28:06;;;;;;;0.75;0.75;;;4.10;99.90;;;;;;5064637;28;20051;-82
2022/01/12 11:30:33;;;;;;;0.80;0.80;;;4.10;99.90;;;;;;5071281;28;20060;-82
2022/01/12 11:33:02;;;;;;;0.70;0.70;;;4.20;99.90;;;;;;5070834;28;20060;-81
2022/01/12 11:35:38;;;;;;;0.70;0.70;;;4.20;99.90;;;;;;5078290;28;20381;-81
2022/01/12 11:38:05;;;;;;;0.80;0.80;;;4.30;99.90;;;;;;5075328;28;20527;-82
2022/01/12 11:40:42;;;;;;;0.90;0.90;;;4.40;99.90;;;;;;5061895;28;20584;-82
2022/01/12 11:43:21;;;;;;;1.00;1.00;;;4.40;99.90;;;;;;5075197;28;20489;-81
2022/01/12 11:46:09;;;;;;;4.32;1.85;;;4.50;99.90;;;;;;5069352;28;20132;-82
2022/01/12 11:48:52;;;;;;;0.80;0.80;;;4.60;99.90;;;;;;5068334;28;20069;-82
2022/01/12 11:51:32;;;;;;;0.70;0.70;;;4.60;99.90;;;;;;5071333;28;20123;-81
2022/01/12 11:54:05;;;;;;;1.05;1.05;;;4.70;99.90;;;;;;5076831;28;20056;-81
2022/01/12 11:56:30;;;;;;;1.10;0.93;;;4.70;99.90;;;;;;5083326;28;20041;-81
2022/01/12 11:59:05;;;;;;;0.60;0.60;;;4.80;99.90;;;;;;5079528;28;20037;-80
2022/01/12 12:01:44;;;;;;;0.60;0.60;;;4.80;99.90;;;;;;5073058;28;20045;-80
2022/01/12 12:04:22;;;;;;;1.35;1.25;;;4.80;99.90;;;;;;5077737;28;20067;-81
2022/01/12 12:06:48;;;;;;;0.90;0.90;;;4.80;99.90;;;;;;5080101;28;20039;-80
2022/01/12 12:09:18;;;;;;;0.70;0.70;;;4.80;99.90;;;;;;5076935;28;20048;-80
2022/01/12 12:11:51;;;;;;;0.80;0.80;;;4.80;99.90;;;;;;5077555;28;20045;-80
2022/01/12 12:14:18;;;;;;;0.98;0.98;;;4.80;99.90;;;;;;5080870;28;20484;-80
2022/01/12 12:16:44;;;;;;;0.80;0.80;;;4.90;99.90;;;;;;5080168;28;20048;-81
2022/01/12 12:19:10;;;;;;;0.70;0.70;;;4.80;99.90;;;;;;5077912;28;20036;-80
2022/01/12 12:21:36;;;;;;;0.70;0.70;;;4.90;99.90;;;;;;5077818;28;20047;-80
2022/01/12 12:24:08;;;;;;;0.70;0.70;;;4.90;99.90;;;;;;5067086;28;20061;-80
2022/01/12 12:26:41;;;;;;;1.77;1.38;;;4.90;99.90;;;;;;5074513;28;20055;-80
2022/01/12 12:29:07;;;;;;;0.88;0.80;;;5.00;99.90;;;;;;5059647;28;20037;-81
2022/01/12 12:31:33;;;;;;;0.70;0.70;;;5.00;99.90;;;;;;5078756;28;20044;-80
2022/01/12 12:34:03;;;;;;;0.70;0.70;;;5.00;99.90;;;;;;5079442;28;20052;-80
2022/01/12 12:36:29;;;;;;;0.82;0.82;;;5.00;99.90;;;;;;5077808;28;20052;-80
2022/01/12 12:39:05;;;;;;;1.15;1.02;;;5.00;99.90;;;;;;5079511;28;20066;-80
2022/01/12 12:41:58;;;;;;;0.98;0.98;;;5.00;99.90;;;;;;5074642;28;20120;-81
2022/01/12 12:44:26;;;;;;;0.70;0.70;;;5.10;99.90;;;;;;5077260;28;20052;-80
2022/01/12 12:47:04;;;;;;;0.70;0.70;;;5.10;99.90;;;;;;5079245;28;20045;-80
2022/01/12 12:49:29;;;;;;;0.70;0.70;;;5.20;99.90;;;;;;5077379;28;20066;-80
2022/01/12 12:52:02;;;;;;;1.30;1.25;;;5.20;99.90;;;;;;5080788;28;20100;-81
2022/01/12 12:54:27;;;;;;;0.80;0.80;;;5.20;99.90;;;;;;5072193;28;20064;-80
2022/01/12 12:57:02;;;;;;;1.60;1.00;;;5.20;99.90;;;;;;5071894;28;20062;-81
2022/01/12 12:59:31;;;;;;;1.40;1.10;;;5.20;99.90;;;;;;5072127;28;20041;-80
2022/01/12 13:01:57;;;;;;;12.00;2.22;;;5.40;99.90;;;;;;5072003;28;20047;-80
2022/01/12 13:04:22;;;;;;;0.80;0.80;;;5.20;99.90;;;;;;5061032;28;20045;-81
2022/01/12 13:06:48;;;;;;;0.70;0.70;;;5.20;99.90;;;;;;5073758;28;20090;-80
2022/01/12 13:09:16;;;;;;;0.82;0.82;;;5.20;99.90;;;;;;5073115;28;20048;-80
2022/01/12 13:11:44;;;;;;;1.40;1.30;;;5.20;99.90;;;;;;5074819;28;20148;-80
2022/01/12 13:14:13;;;;;;;0.77;0.77;;;5.20;99.90;;;;;;5077968;28;20044;-80
2022/01/12 13:16:50;;;;;;;0.90;0.90;;;5.20;99.90;;;;;;5079176;28;20466;-80
2022/01/12 13:22:31;;;;;;;4.32;2.03;;;5.30;99.90;;;;;;5064246;28;20082;-80
2022/01/12 13:25:03;;;;;;;0.60;0.60;;;5.30;99.90;;;;;;5071970;28;20060;-80
2022/01/12 13:27:31;;;;;;;0.70;0.70;;;5.30;99.90;;;;;;5080268;28;20052;-81
2022/01/12 13:29:57;;;;;;;0.90;0.90;;;5.20;99.90;;;;;;5075486;28;20043;-80
2022/01/12 13:32:22;;;;;;;0.70;0.70;;;5.20;99.90;;;;;;5079626;28;20469;-81
2022/01/12 13:35:00;;;;;;;0.77;0.77;;;5.20;99.90;;;;;;5077591;28;20091;-80
2022/01/12 13:37:26;;;;;;;1.05;1.02;;;5.20;99.90;;;;;;5076534;28;20044;-80
2022/01/12 13:40:11;;;;;;;1.75;1.38;;;5.30;99.90;;;;;;5076701;28;20424;-80
2022/01/12 13:42:56;;;;;;;0.85;0.85;;;5.10;99.90;;;;;;5072046;28;20041;-81
2022/01/12 13:45:30;;;;;;;2.47;1.85;;;5.10;99.90;;;;;;5081897;28;20036;-80
2022/01/12 13:47:58;;;;;;;;;;;5.10;99.90;;;;;;5075617;28;20064;-80
2022/01/12 13:50:36;;;;;;;0.75;0.75;;;5.00;99.90;;;;;;5075165;28;19925;-80
2022/01/12 13:53:06;;;;;;;0.70;0.70;;;5.00;99.90;;;;;;5076466;28;20041;-80
2022/01/12 13:55:33;;;;;;;0.70;0.70;;;5.10;99.90;;;;;;5086215;28;20037;-80
2022/01/12 13:58:09;;;;;;;0.73;0.73;;;5.00;99.90;;;;;;5077865;28;20041;-80
2022/01/12 14:00:37;;;;;;;0.70;0.70;;;5.00;99.90;;;;;;5073903;28;20078;-80
2022/01/12 14:03:24;;;;;;;2.58;1.83;;;5.10;99.90;;;;;;5075588;28;20101;-80
2022/01/12 14:05:58;;;;;;;0.70;0.70;;;5.00;99.90;;;;;;5074531;28;20458;-80
2022/01/12 14:08:29;;;;;;;0.80;0.80;;;5.00;99.90;;;;;;5070577;28;20048;-80
2022/01/12 14:10:55;;;;;;;0.93;0.93;;;5.00;99.90;;;;;;5069905;28;20041;-80
2022/01/12 14:13:28;;;;;;;0.60;0.60;;;5.00;99.90;;;;;;5070113;28;20397;-80
2022/01/12 14:16:05;;;;;;;0.65;0.65;;;5.00;99.90;;;;;;5073355;28;20500;-80
2022/01/12 14:18:31;;;;;;;0.65;0.65;;;4.90;99.90;;;;;;5074972;28;20063;-80
2022/01/12 14:20:59;;;;;;;1.25;1.15;;;4.90;99.90;;;;;;5072974;28;20048;-80
2022/01/12 14:23:25;;;;;;;0.73;0.73;;;4.90;99.90;;;;;;5082387;28;20092;-80
2022/01/12 14:25:51;;;;;;;0.70;0.70;;;4.90;99.90;;;;;;5070863;28;20048;-80
2022/01/12 14:28:30;;;;;;;1.20;0.98;;;4.90;99.90;;;;;;5075536;28;20052;-80
2022/01/12 14:30:56;;;;;;;0.80;0.80;;;4.90;99.90;;;;;;5073402;28;20134;-80
2022/01/12 14:33:22;;;;;;;0.65;0.65;;;4.90;99.90;;;;;;5077461;28;20119;-80
2022/01/12 14:35:49;;;;;;;0.70;0.70;;;4.90;99.90;;;;;;5053722;28;20468;-80
2022/01/12 14:38:15;;;;;;;0.60;0.60;;;4.90;99.90;;;;;;5051097;28;20517;-80